sensor_id;sensor_type;location;lat;lon;timestamp;pressure;altitude;pressure_sealevel;temperature;humidity
63121;BME280;54478;48.684;20.114;2023-05-11T00:00:49;98447.66;;;7.09;100.00
63121;BME280;54478;48.684;20.114;2023-05-11T00:03:18;98444.00;;;6.79;100.00
63121;BME280;54478;48.684;20.114;2023-05-11T00:05:47;98454.66;;;6.71;100.00
63121;BME280;54478;48.684;20.114;2023-05-11T00:08:16;98458.91;;;6.81;100.00
63121;BME280;54478;48.684;20.114;2023-05-11T00:10:47;98458.13;;;6.56;100.00
63121;BME280;54478;48.684;20.114;2023-05-11T00:13:16;98462.16;;;7.04;100.00
63121;BME280;54478;48.684;20.114;2023-05-11T00:15:44;98450.13;;;7.07;100.00
63121;BME280;54478;48.684;20.114;2023-05-11T00:18:13;98444.88;;;7.09;100.00
63121;BME280;54478;48.684;20.114;2023-05-11T00:20:41;98444.84;;;6.94;100.00
63121;BME280;54478;48.684;20.114;2023-05-11T00:23:09;98443.03;;;6.91;100.00
63121;BME280;54478;48.684;20.114;2023-05-11T00:25:38;98449.19;;;7.10;100.00
63121;BME280;54478;48.684;20.114;2023-05-11T00:28:03;98447.81;;;6.90;100.00
63121;BME280;54478;48.684;20.114;2023-05-11T00:30:32;98451.31;;;7.15;100.00
63121;BME280;54478;48.684;20.114;2023-05-11T00:33:00;98442.31;;;6.81;100.00
63121;BME280;54478;48.684;20.114;2023-05-11T00:35:28;98443.88;;;6.49;100.00
63121;BME280;54478;48.684;20.114;2023-05-11T00:37:58;98440.38;;;6.48;100.00
63121;BME280;54478;48.684;20.114;2023-05-11T00:40:26;98438.03;;;6.22;100.00
63121;BME280;54478;48.684;20.114;2023-05-11T00:42:55;98446.47;;;6.19;100.00
63121;BME280;54478;48.684;20.114;2023-05-11T00:45:23;98450.38;;;6.46;100.00
63121;BME280;54478;48.684;20.114;2023-05-11T00:47:52;98460.03;;;6.74;100.00
63121;BME280;54478;48.684;20.114;2023-05-11T00:50:20;98461.09;;;6.77;100.00
63121;BME280;54478;48.684;20.114;2023-05-11T00:52:49;98447.97;;;6.63;100.00
63121;BME280;54478;48.684;20.114;2023-05-11T00:55:19;98458.03;;;6.75;100.00
63121;BME280;54478;48.684;20.114;2023-05-11T00:57:48;98446.78;;;6.79;100.00
63121;BME280;54478;48.684;20.114;2023-05-11T01:00:16;98458.06;;;7.14;100.00
63121;BME280;54478;48.684;20.114;2023-05-11T01:02:45;98443.44;;;6.74;100.00
63121;BME280;54478;48.684;20.114;2023-05-11T01:05:13;98437.19;;;6.65;100.00
63121;BME280;54478;48.684;20.114;2023-05-11T01:07:53;98447.84;;;6.57;100.00
63121;BME280;54478;48.684;20.114;2023-05-11T01:10:40;98436.38;;;6.49;100.00
63121;BME280;54478;48.684;20.114;2023-05-11T01:13:32;98447.22;;;6.53;100.00
63121;BME280;54478;48.684;20.114;2023-05-11T01:16:01;98442.22;;;6.08;100.00
63121;BME280;54478;48.684;20.114;2023-05-11T01:18:41;98451.00;;;6.40;100.00
63121;BME280;54478;48.684;20.114;2023-05-11T01:21:08;98437.97;;;6.32;100.00
63121;BME280;54478;48.684;20.114;2023-05-11T01:27:06;98450.75;;;6.29;100.00
63121;BME280;54478;48.684;20.114;2023-05-11T01:32:39;98442.28;;;6.33;100.00
63121;BME280;54478;48.684;20.114;2023-05-11T01:35:12;98450.28;;;6.31;100.00
63121;BME280;54478;48.684;20.114;2023-05-11T01:37:40;98437.22;;;6.31;100.00
63121;BME280;54478;48.684;20.114;2023-05-11T01:40:13;98444.31;;;6.56;100.00
63121;BME280;54478;48.684;20.114;2023-05-11T01:43:07;98441.50;;;6.32;100.00
63121;BME280;54478;48.684;20.114;2023-05-11T01:45:40;98438.94;;;6.29;100.00
63121;BME280;54478;48.684;20.114;2023-05-11T01:48:13;98444.63;;;6.25;100.00
63121;BME280;54478;48.684;20.114;2023-05-11T01:50:44;98439.84;;;6.25;100.00
63121;BME280;54478;48.684;20.114;2023-05-11T01:53:12;98435.06;;;6.35;100.00
63121;BME280;54478;48.684;20.114;2023-05-11T01:55:42;98444.03;;;6.45;100.00
63121;BME280;54478;48.684;20.114;2023-05-11T01:58:13;98425.75;;;6.23;100.00
63121;BME280;54478;48.684;20.114;2023-05-11T02:00:44;98435.13;;;6.17;100.00
63121;BME280;54478;48.684;20.114;2023-05-11T02:03:14;98433.50;;;5.91;100.00
63121;BME280;54478;48.684;20.114;2023-05-11T02:05:44;98436.88;;;5.96;100.00
63121;BME280;54478;48.684;20.114;2023-05-11T02:08:16;98443.66;;;6.28;100.00
63121;BME280;54478;48.684;20.114;2023-05-11T02:10:47;98431.66;;;5.98;100.00
63121;BME280;54478;48.684;20.114;2023-05-11T02:13:17;98436.84;;;6.05;100.00
63121;BME280;54478;48.684;20.114;2023-05-11T02:15:50;98432.81;;;6.15;100.00
63121;BME280;54478;48.684;20.114;2023-05-11T02:18:19;98433.63;;;5.97;100.00
63121;BME280;54478;48.684;20.114;2023-05-11T02:20:48;98431.28;;;6.14;100.00
63121;BME280;54478;48.684;20.114;2023-05-11T02:23:18;98440.88;;;5.85;100.00
63121;BME280;54478;48.684;20.114;2023-05-11T02:25:48;98439.19;;;5.88;100.00
63121;BME280;54478;48.684;20.114;2023-05-11T02:28:14;98432.50;;;6.22;100.00
63121;BME280;54478;48.684;20.114;2023-05-11T02:30:47;98434.59;;;5.85;100.00
63121;BME280;54478;48.684;20.114;2023-05-11T02:33:20;98439.41;;;6.18;100.00
63121;BME280;54478;48.684;20.114;2023-05-11T02:35:54;98437.06;;;5.83;100.00
63121;BME280;54478;48.684;20.114;2023-05-11T02:38:25;98428.47;;;5.71;100.00
63121;BME280;54478;48.684;20.114;2023-05-11T02:41:00;98424.78;;;5.84;100.00
63121;BME280;54478;48.684;20.114;2023-05-11T02:43:31;98432.91;;;5.78;100.00
63121;BME280;54478;48.684;20.114;2023-05-11T02:46:05;98428.06;;;5.54;100.00
63121;BME280;54478;48.684;20.114;2023-05-11T02:48:38;98426.53;;;5.53;100.00
63121;BME280;54478;48.684;20.114;2023-05-11T02:51:10;98431.84;;;5.85;100.00
63121;BME280;54478;48.684;20.114;2023-05-11T02:53:39;98424.81;;;5.74;100.00
63121;BME280;54478;48.684;20.114;2023-05-11T02:56:08;98429.31;;;5.96;100.00
63121;BME280;54478;48.684;20.114;2023-05-11T02:58:37;98421.56;;;5.76;100.00
63121;BME280;54478;48.684;20.114;2023-05-11T03:01:06;98423.25;;;5.83;100.00
63121;BME280;54478;48.684;20.114;2023-05-11T03:03:34;98416.53;;;5.74;100.00
63121;BME280;54478;48.684;20.114;2023-05-11T03:06:03;98405.78;;;5.67;100.00
63121;BME280;54478;48.684;20.114;2023-05-11T03:08:31;98412.66;;;5.81;100.00
63121;BME280;54478;48.684;20.114;2023-05-11T03:11:01;98410.53;;;5.76;100.00
63121;BME280;54478;48.684;20.114;2023-05-11T03:13:30;98415.91;;;5.80;100.00
63121;BME280;54478;48.684;20.114;2023-05-11T03:15:59;98413.75;;;5.74;100.00
63121;BME280;54478;48.684;20.114;2023-05-11T03:18:30;98417.00;;;5.64;100.00
63121;BME280;54478;48.684;20.114;2023-05-11T03:20:59;98417.25;;;5.84;100.00
63121;BME280;54478;48.684;20.114;2023-05-11T03:23:29;98420.97;;;5.72;100.00
63121;BME280;54478;48.684;20.114;2023-05-11T03:25:58;98406.28;;;5.47;100.00
63121;BME280;54478;48.684;20.114;2023-05-11T03:28:24;98409.53;;;5.36;100.00
63121;BME280;54478;48.684;20.114;2023-05-11T03:30:54;98408.16;;;5.32;100.00
63121;BME280;54478;48.684;20.114;2023-05-11T03:33:22;98420.69;;;5.60;100.00
63121;BME280;54478;48.684;20.114;2023-05-11T03:35:52;98412.53;;;5.66;100.00
63121;BME280;54478;48.684;20.114;2023-05-11T03:38:22;98410.03;;;5.87;100.00
63121;BME280;54478;48.684;20.114;2023-05-11T03:40:52;98404.91;;;5.52;100.00
63121;BME280;54478;48.684;20.114;2023-05-11T03:43:22;98411.94;;;5.62;100.00
63121;BME280;54478;48.684;20.114;2023-05-11T03:45:52;98403.47;;;5.75;100.00
63121;BME280;54478;48.684;20.114;2023-05-11T03:48:22;98399.91;;;5.84;100.00
63121;BME280;54478;48.684;20.114;2023-05-11T03:50:50;98398.50;;;5.98;100.00
63121;BME280;54478;48.684;20.114;2023-05-11T03:53:19;98393.16;;;5.85;100.00
63121;BME280;54478;48.684;20.114;2023-05-11T03:55:48;98398.78;;;6.33;100.00
63121;BME280;54478;48.684;20.114;2023-05-11T03:58:17;98391.91;;;6.53;100.00
63121;BME280;54478;48.684;20.114;2023-05-11T04:00:46;98380.44;;;6.45;100.00
63121;BME280;54478;48.684;20.114;2023-05-11T04:03:14;98379.84;;;6.41;100.00
63121;BME280;54478;48.684;20.114;2023-05-11T04:05:43;98382.44;;;6.45;100.00
63121;BME280;54478;48.684;20.114;2023-05-11T04:08:11;98382.53;;;6.60;100.00
63121;BME280;54478;48.684;20.114;2023-05-11T04:10:40;98388.81;;;6.84;100.00
63121;BME280;54478;48.684;20.114;2023-05-11T04:13:08;98379.72;;;6.84;100.00
63121;BME280;54478;48.684;20.114;2023-05-11T04:15:37;98373.81;;;6.91;100.00
63121;BME280;54478;48.684;20.114;2023-05-11T04:18:05;98364.16;;;6.86;100.00
63121;BME280;54478;48.684;20.114;2023-05-11T04:20:33;98372.81;;;7.03;100.00
63121;BME280;54478;48.684;20.114;2023-05-11T04:23:01;98371.13;;;7.36;100.00
63121;BME280;54478;48.684;20.114;2023-05-11T04:25:30;98378.44;;;7.09;100.00
63121;BME280;54478;48.684;20.114;2023-05-11T04:27:56;98373.69;;;7.24;100.00
63121;BME280;54478;48.684;20.114;2023-05-11T04:30:24;98365.78;;;7.47;100.00
63121;BME280;54478;48.684;20.114;2023-05-11T04:32:52;98361.19;;;7.44;100.00
63121;BME280;54478;48.684;20.114;2023-05-11T04:35:20;98359.78;;;7.49;100.00
63121;BME280;54478;48.684;20.114;2023-05-11T04:37:49;98370.19;;;8.19;100.00
63121;BME280;54478;48.684;20.114;2023-05-11T04:40:17;98356.34;;;8.04;100.00
63121;BME280;54478;48.684;20.114;2023-05-11T04:42:46;98351.84;;;8.07;100.00
63121;BME280;54478;48.684;20.114;2023-05-11T04:45:14;98352.03;;;8.39;100.00
63121;BME280;54478;48.684;20.114;2023-05-11T04:47:42;98340.28;;;8.65;100.00
63121;BME280;54478;48.684;20.114;2023-05-11T04:50:11;98344.69;;;8.98;100.00
63121;BME280;54478;48.684;20.114;2023-05-11T04:52:39;98336.19;;;9.07;100.00
63121;BME280;54478;48.684;20.114;2023-05-11T04:55:08;98325.25;;;9.24;100.00
63121;BME280;54478;48.684;20.114;2023-05-11T04:57:36;98319.84;;;9.41;100.00
63121;BME280;54478;48.684;20.114;2023-05-11T05:00:06;98325.53;;;9.58;100.00
63121;BME280;54478;48.684;20.114;2023-05-11T05:02:35;98318.41;;;9.89;100.00
63121;BME280;54478;48.684;20.114;2023-05-11T05:05:04;98313.84;;;9.80;100.00
63121;BME280;54478;48.684;20.114;2023-05-11T05:07:32;98308.88;;;9.96;100.00
63121;BME280;54478;48.684;20.114;2023-05-11T05:10:01;98312.94;;;10.00;100.00
63121;BME280;54478;48.684;20.114;2023-05-11T05:12:28;98308.06;;;10.33;100.00
63121;BME280;54478;48.684;20.114;2023-05-11T05:14:56;98293.81;;;10.14;100.00
63121;BME280;54478;48.684;20.114;2023-05-11T05:17:24;98305.91;;;10.11;100.00
63121;BME280;54478;48.684;20.114;2023-05-11T05:19:52;98293.47;;;10.49;100.00
63121;BME280;54478;48.684;20.114;2023-05-11T05:22:20;98293.84;;;10.74;100.00
63121;BME280;54478;48.684;20.114;2023-05-11T05:24:47;98297.66;;;10.88;100.00
63121;BME280;54478;48.684;20.114;2023-05-11T05:27:12;98295.16;;;11.07;100.00
63121;BME280;54478;48.684;20.114;2023-05-11T05:29:41;98280.75;;;11.31;100.00
63121;BME280;54478;48.684;20.114;2023-05-11T05:32:07;98276.94;;;11.46;100.00
63121;BME280;54478;48.684;20.114;2023-05-11T05:34:35;98281.50;;;11.32;100.00
63121;BME280;54478;48.684;20.114;2023-05-11T05:37:04;98278.47;;;11.70;100.00
63121;BME280;54478;48.684;20.114;2023-05-11T05:39:32;98278.94;;;11.68;100.00
63121;BME280;54478;48.684;20.114;2023-05-11T05:42:01;98271.34;;;11.97;100.00
63121;BME280;54478;48.684;20.114;2023-05-11T05:44:30;98258.09;;;12.14;100.00
63121;BME280;54478;48.684;20.114;2023-05-11T05:46:58;98270.13;;;12.45;100.00
63121;BME280;54478;48.684;20.114;2023-05-11T05:49:27;98261.66;;;12.68;100.00
63121;BME280;54478;48.684;20.114;2023-05-11T05:51:55;98265.56;;;12.95;100.00
63121;BME280;54478;48.684;20.114;2023-05-11T05:54:23;98266.00;;;13.05;100.00
63121;BME280;54478;48.684;20.114;2023-05-11T05:56:52;98268.34;;;13.31;100.00
63121;BME280;54478;48.684;20.114;2023-05-11T05:59:20;98262.69;;;13.48;100.00
63121;BME280;54478;48.684;20.114;2023-05-11T06:01:51;98257.09;;;13.48;100.00
63121;BME280;54478;48.684;20.114;2023-05-11T06:04:19;98257.91;;;13.68;100.00
63121;BME280;54478;48.684;20.114;2023-05-11T06:06:47;98253.94;;;14.07;100.00
63121;BME280;54478;48.684;20.114;2023-05-11T06:09:16;98250.50;;;14.20;100.00
63121;BME280;54478;48.684;20.114;2023-05-11T06:11:42;98251.81;;;14.38;100.00
63121;BME280;54478;48.684;20.114;2023-05-11T06:14:10;98238.09;;;14.54;100.00
63121;BME280;54478;48.684;20.114;2023-05-11T06:16:38;98249.31;;;15.11;100.00
63121;BME280;54478;48.684;20.114;2023-05-11T06:19:07;98244.72;;;15.27;100.00
63121;BME280;54478;48.684;20.114;2023-05-11T06:21:35;98256.88;;;15.49;100.00
63121;BME280;54478;48.684;20.114;2023-05-11T06:24:04;98251.38;;;15.56;100.00
63121;BME280;54478;48.684;20.114;2023-05-11T06:26:32;98249.03;;;15.28;100.00
63121;BME280;54478;48.684;20.114;2023-05-11T06:28:58;98245.34;;;15.52;100.00
63121;BME280;54478;48.684;20.114;2023-05-11T06:31:26;98248.75;;;15.91;100.00
63121;BME280;54478;48.684;20.114;2023-05-11T06:33:54;98251.50;;;15.77;100.00
63121;BME280;54478;48.684;20.114;2023-05-11T06:36:22;98261.00;;;15.74;100.00
63121;BME280;54478;48.684;20.114;2023-05-11T06:38:51;98259.31;;;15.85;100.00
63121;BME280;54478;48.684;20.114;2023-05-11T06:41:19;98260.78;;;15.59;100.00
63121;BME280;54478;48.684;20.114;2023-05-11T06:43:48;98268.63;;;16.06;100.00
63121;BME280;54478;48.684;20.114;2023-05-11T06:46:16;98268.19;;;16.16;100.00
63121;BME280;54478;48.684;20.114;2023-05-11T06:48:45;98266.56;;;15.93;100.00
63121;BME280;54478;48.684;20.114;2023-05-11T06:51:14;98277.69;;;15.86;100.00
63121;BME280;54478;48.684;20.114;2023-05-11T06:53:42;98278.03;;;16.09;100.00
63121;BME280;54478;48.684;20.114;2023-05-11T06:56:10;98261.72;;;16.21;100.00
63121;BME280;54478;48.684;20.114;2023-05-11T06:58:39;98270.00;;;16.26;100.00
63121;BME280;54478;48.684;20.114;2023-05-11T07:01:07;98263.13;;;16.14;100.00
63121;BME280;54478;48.684;20.114;2023-05-11T07:03:36;98276.63;;;16.42;100.00
63121;BME280;54478;48.684;20.114;2023-05-11T07:06:04;98261.56;;;16.67;100.00
63121;BME280;54478;48.684;20.114;2023-05-11T07:08:32;98270.09;;;16.61;100.00
63121;BME280;54478;48.684;20.114;2023-05-11T07:11:01;98260.53;;;16.91;100.00
63121;BME280;54478;48.684;20.114;2023-05-11T07:13:29;98264.47;;;17.09;100.00
63121;BME280;54478;48.684;20.114;2023-05-11T07:15:57;98259.19;;;17.48;100.00
63121;BME280;54478;48.684;20.114;2023-05-11T07:18:26;98267.09;;;17.49;100.00
63121;BME280;54478;48.684;20.114;2023-05-11T07:20:54;98263.97;;;17.82;100.00
63121;BME280;54478;48.684;20.114;2023-05-11T07:23:22;98258.25;;;17.95;100.00
63121;BME280;54478;48.684;20.114;2023-05-11T07:25:50;98266.25;;;18.12;100.00
63121;BME280;54478;48.684;20.114;2023-05-11T07:28:17;98256.81;;;17.81;100.00
63121;BME280;54478;48.684;20.114;2023-05-11T07:30:46;98256.88;;;17.88;100.00
63121;BME280;54478;48.684;20.114;2023-05-11T07:33:14;98247.94;;;18.27;100.00
63121;BME280;54478;48.684;20.114;2023-05-11T07:35:42;98251.59;;;17.85;100.00
63121;BME280;54478;48.684;20.114;2023-05-11T07:38:10;98256.31;;;18.11;100.00
63121;BME280;54478;48.684;20.114;2023-05-11T07:40:40;98252.41;;;18.22;100.00
63121;BME280;54478;48.684;20.114;2023-05-11T07:43:09;98250.72;;;18.19;100.00
63121;BME280;54478;48.684;20.114;2023-05-11T07:45:38;98241.63;;;18.05;100.00
63121;BME280;54478;48.684;20.114;2023-05-11T07:48:06;98250.47;;;18.46;100.00
63121;BME280;54478;48.684;20.114;2023-05-11T07:50:32;98237.56;;;18.58;100.00
63121;BME280;54478;48.684;20.114;2023-05-11T07:52:58;98246.31;;;18.39;100.00
63121;BME280;54478;48.684;20.114;2023-05-11T07:55:26;98243.22;;;19.18;100.00
63121;BME280;54478;48.684;20.114;2023-05-11T07:57:57;98237.03;;;18.67;100.00
63121;BME280;54478;48.684;20.114;2023-05-11T08:00:25;98244.53;;;18.20;100.00
63121;BME280;54478;48.684;20.114;2023-05-11T08:02:54;98246.19;;;19.20;100.00
63121;BME280;54478;48.684;20.114;2023-05-11T08:05:23;98238.47;;;18.97;100.00
63121;BME280;54478;48.684;20.114;2023-05-11T08:07:52;98243.72;;;19.01;100.00
63121;BME280;54478;48.684;20.114;2023-05-11T08:10:20;98233.63;;;18.61;100.00
63121;BME280;54478;48.684;20.114;2023-05-11T08:12:48;98244.66;;;18.96;100.00
63121;BME280;54478;48.684;20.114;2023-05-11T08:15:16;98241.28;;;18.53;100.00
63121;BME280;54478;48.684;20.114;2023-05-11T08:17:45;98243.22;;;19.26;100.00
63121;BME280;54478;48.684;20.114;2023-05-11T08:20:13;98240.59;;;18.68;100.00
63121;BME280;54478;48.684;20.114;2023-05-11T08:22:41;98227.75;;;19.11;100.00
63121;BME280;54478;48.684;20.114;2023-05-11T08:25:10;98233.03;;;19.61;100.00
63121;BME280;54478;48.684;20.114;2023-05-11T08:27:35;98239.84;;;19.89;100.00
63121;BME280;54478;48.684;20.114;2023-05-11T08:30:04;98231.53;;;19.60;100.00
63121;BME280;54478;48.684;20.114;2023-05-11T08:32:33;98236.66;;;19.85;100.00
63121;BME280;54478;48.684;20.114;2023-05-11T08:35:02;98236.06;;;19.48;100.00
63121;BME280;54478;48.684;20.114;2023-05-11T08:37:31;98225.91;;;19.37;100.00
63121;BME280;54478;48.684;20.114;2023-05-11T08:39:59;98231.91;;;19.80;100.00
63121;BME280;54478;48.684;20.114;2023-05-11T08:42:34;98230.78;;;19.52;100.00
63121;BME280;54478;48.684;20.114;2023-05-11T08:45:05;98220.25;;;19.60;100.00
63121;BME280;54478;48.684;20.114;2023-05-11T08:47:32;98216.78;;;20.24;100.00
63121;BME280;54478;48.684;20.114;2023-05-11T08:50:01;98234.75;;;19.80;100.00
63121;BME280;54478;48.684;20.114;2023-05-11T08:52:29;98216.31;;;19.55;100.00
63121;BME280;54478;48.684;20.114;2023-05-11T08:54:58;98215.00;;;19.87;100.00
63121;BME280;54478;48.684;20.114;2023-05-11T08:57:29;98217.53;;;20.16;100.00
63121;BME280;54478;48.684;20.114;2023-05-11T09:00:02;98222.38;;;20.39;100.00
63121;BME280;54478;48.684;20.114;2023-05-11T09:02:29;98224.25;;;20.44;100.00
63121;BME280;54478;48.684;20.114;2023-05-11T09:04:58;98224.34;;;20.62;100.00
63121;BME280;54478;48.684;20.114;2023-05-11T09:07:29;98227.94;;;20.62;100.00
63121;BME280;54478;48.684;20.114;2023-05-11T09:09:58;98224.41;;;19.90;100.00
63121;BME280;54478;48.684;20.114;2023-05-11T09:12:27;98233.78;;;21.56;100.00
63121;BME280;54478;48.684;20.114;2023-05-11T09:14:55;98226.50;;;20.46;100.00
63121;BME280;54478;48.684;20.114;2023-05-11T09:17:24;98219.59;;;20.31;100.00
63121;BME280;54478;48.684;20.114;2023-05-11T09:20:02;98214.28;;;20.76;100.00
63121;BME280;54478;48.684;20.114;2023-05-11T09:22:32;98217.59;;;19.93;100.00
63121;BME280;54478;48.684;20.114;2023-05-11T09:25:01;98221.09;;;20.25;100.00
63121;BME280;54478;48.684;20.114;2023-05-11T09:27:26;98228.72;;;19.60;100.00
63121;BME280;54478;48.684;20.114;2023-05-11T09:29:55;98204.94;;;20.10;100.00
63121;BME280;54478;48.684;20.114;2023-05-11T09:32:23;98218.66;;;20.29;100.00
63121;BME280;54478;48.684;20.114;2023-05-11T09:34:49;98215.19;;;20.46;100.00
63121;BME280;54478;48.684;20.114;2023-05-11T09:37:18;98225.31;;;20.08;100.00
63121;BME280;54478;48.684;20.114;2023-05-11T09:39:52;98230.75;;;20.14;100.00
63121;BME280;54478;48.684;20.114;2023-05-11T09:42:21;98223.28;;;20.90;100.00
63121;BME280;54478;48.684;20.114;2023-05-11T09:44:47;98207.34;;;22.13;100.00
63121;BME280;54478;48.684;20.114;2023-05-11T09:47:18;98200.44;;;21.21;100.00
63121;BME280;54478;48.684;20.114;2023-05-11T09:49:47;98201.25;;;22.52;100.00
63121;BME280;54478;48.684;20.114;2023-05-11T09:52:16;98198.78;;;21.86;100.00
63121;BME280;54478;48.684;20.114;2023-05-11T09:54:47;98212.34;;;22.58;100.00
63121;BME280;54478;48.684;20.114;2023-05-11T09:57:30;98210.66;;;21.67;100.00
63121;BME280;54478;48.684;20.114;2023-05-11T09:59:58;98216.03;;;22.50;100.00
63121;BME280;54478;48.684;20.114;2023-05-11T10:02:28;98202.28;;;21.77;100.00
63121;BME280;54478;48.684;20.114;2023-05-11T10:04:58;98211.19;;;21.23;100.00
63121;BME280;54478;48.684;20.114;2023-05-11T10:07:28;98212.00;;;21.41;100.00
63121;BME280;54478;48.684;20.114;2023-05-11T10:09:59;98208.81;;;21.36;100.00
63121;BME280;54478;48.684;20.114;2023-05-11T10:12:29;98201.00;;;21.19;100.00
63121;BME280;54478;48.684;20.114;2023-05-11T10:15:04;98202.06;;;20.25;100.00
63121;BME280;54478;48.684;20.114;2023-05-11T10:17:33;98207.47;;;20.87;100.00
63121;BME280;54478;48.684;20.114;2023-05-11T10:20:00;98196.72;;;21.11;100.00
63121;BME280;54478;48.684;20.114;2023-05-11T10:22:30;98199.66;;;20.14;100.00
63121;BME280;54478;48.684;20.114;2023-05-11T10:24:59;98200.09;;;19.79;100.00
63121;BME280;54478;48.684;20.114;2023-05-11T10:27:25;98201.59;;;19.88;100.00
63121;BME280;54478;48.684;20.114;2023-05-11T10:29:54;98207.13;;;20.34;100.00
63121;BME280;54478;48.684;20.114;2023-05-11T10:32:20;98196.69;;;20.52;100.00
63121;BME280;54478;48.684;20.114;2023-05-11T10:34:49;98205.88;;;20.12;100.00
63121;BME280;54478;48.684;20.114;2023-05-11T10:37:18;98200.63;;;20.09;100.00
63121;BME280;54478;48.684;20.114;2023-05-11T10:39:48;98210.38;;;20.15;100.00
63121;BME280;54478;48.684;20.114;2023-05-11T10:45:21;98208.66;;;20.28;100.00
63121;BME280;54478;48.684;20.114;2023-05-11T11:01:49;98180.84;;;20.57;100.00
63121;BME280;54478;48.684;20.114;2023-05-11T11:04:22;98185.34;;;21.44;100.00
63121;BME280;54478;48.684;20.114;2023-05-11T11:07:04;98178.19;;;22.03;100.00
63121;BME280;54478;48.684;20.114;2023-05-11T11:12:20;98173.84;;;20.58;100.00
63121;BME280;54478;48.684;20.114;2023-05-11T11:17:24;98168.16;;;20.25;100.00
63121;BME280;54478;48.684;20.114;2023-05-11T11:19:53;98172.09;;;20.70;100.00
63121;BME280;54478;48.684;20.114;2023-05-11T11:25:06;98167.50;;;19.94;100.00
63121;BME280;54478;48.684;20.114;2023-05-11T11:27:53;98164.25;;;20.13;100.00
63121;BME280;54478;48.684;20.114;2023-05-11T11:32:47;98160.78;;;21.03;100.00
63121;BME280;54478;48.684;20.114;2023-05-11T11:38:03;98145.34;;;20.64;100.00
63121;BME280;54478;48.684;20.114;2023-05-11T11:40:40;98160.13;;;21.38;100.00
63121;BME280;54478;48.684;20.114;2023-05-11T11:43:27;98154.84;;;20.84;100.00
63121;BME280;54478;48.684;20.114;2023-05-11T11:46:00;98159.34;;;21.20;100.00
63121;BME280;54478;48.684;20.114;2023-05-11T11:51:04;98156.75;;;20.81;100.00
63121;BME280;54478;48.684;20.114;2023-05-11T11:56:36;98162.34;;;22.62;100.00
63121;BME280;54478;48.684;20.114;2023-05-11T12:01:20;98142.84;;;21.87;100.00
63121;BME280;54478;48.684;20.114;2023-05-11T12:04:12;98158.94;;;21.66;100.00
63121;BME280;54478;48.684;20.114;2023-05-11T12:06:54;98157.44;;;21.83;100.00
63121;BME280;54478;48.684;20.114;2023-05-11T12:09:21;98151.47;;;21.11;100.00
63121;BME280;54478;48.684;20.114;2023-05-11T12:11:51;98144.81;;;22.74;100.00
63121;BME280;54478;48.684;20.114;2023-05-11T12:14:17;98127.84;;;24.68;100.00
63121;BME280;54478;48.684;20.114;2023-05-11T12:17:00;98116.03;;;23.24;100.00
63121;BME280;54478;48.684;20.114;2023-05-11T12:19:26;98124.78;;;21.22;100.00
63121;BME280;54478;48.684;20.114;2023-05-11T12:21:55;98130.50;;;21.14;100.00
63121;BME280;54478;48.684;20.114;2023-05-11T12:24:24;98127.94;;;23.89;100.00
63121;BME280;54478;48.684;20.114;2023-05-11T12:26:56;98111.25;;;24.95;100.00
63121;BME280;54478;48.684;20.114;2023-05-11T12:29:25;98106.41;;;25.61;100.00
63121;BME280;54478;48.684;20.114;2023-05-11T12:31:53;98094.88;;;25.92;100.00
63121;BME280;54478;48.684;20.114;2023-05-11T12:34:20;98097.03;;;26.25;100.00
63121;BME280;54478;48.684;20.114;2023-05-11T12:36:52;98087.53;;;26.68;100.00
63121;BME280;54478;48.684;20.114;2023-05-11T12:39:25;98081.34;;;26.96;100.00
63121;BME280;54478;48.684;20.114;2023-05-11T12:41:55;98085.56;;;25.58;100.00
63121;BME280;54478;48.684;20.114;2023-05-11T12:44:24;98079.16;;;28.19;100.00
63121;BME280;54478;48.684;20.114;2023-05-11T12:46:53;98070.59;;;25.91;100.00
63121;BME280;54478;48.684;20.114;2023-05-11T12:49:23;98066.41;;;25.06;100.00
63121;BME280;54478;48.684;20.114;2023-05-11T12:54:35;98055.69;;;29.30;100.00
63121;BME280;54478;48.684;20.114;2023-05-11T12:57:06;98053.38;;;27.42;100.00
